Time;durP1;ratioP1;P1;durP2;ratioP2;P2;SDS_P1;SDS_P2;PMS_P1;PMS_P2;Temp;Humidity;BMP_temperature;BMP_pressure;BME280_temperature;BME280_humidity;BME280_pressure;Samples;Min_cycle;Max_cycle;Signal;HPM_P1;HPM_P2
2022/09/28 00:01:16;;;;;;;13.30;5.50;;;9.50;99.90;;;;;;5134627;27;20113;-88
2022/09/28 00:03:43;;;;;;;11.48;5.40;;;9.50;99.90;;;;;;5134816;27;20046;-88
2022/09/28 00:06:11;;;;;;;12.07;6.07;;;9.50;99.90;;;;;;5135193;27;20117;-89
2022/09/28 00:08:38;;;;;;;11.60;6.20;;;9.50;99.90;;;;;;5118006;27;20053;-88
2022/09/28 00:11:06;;;;;;;10.38;5.70;;;9.50;99.90;;;;;;5134361;27;20045;-89
2022/09/28 00:13:32;;;;;;;13.13;6.35;;;9.50;99.90;;;;;;5135021;27;20042;-89
2022/09/28 00:15:58;;;;;;;11.27;5.72;;;9.50;99.90;;;;;;5117809;27;20049;-89
2022/09/28 00:18:24;;;;;;;8.95;4.75;;;9.50;99.90;;;;;;5134842;27;20034;-89
2022/09/28 00:21:03;;;;;;;11.85;5.95;;;9.50;99.90;;;;;;5118124;27;20042;-88
2022/09/28 00:23:28;;;;;;;11.60;6.10;;;9.50;99.90;;;;;;5118048;27;20035;-89
2022/09/28 00:25:54;;;;;;;12.95;5.95;;;9.50;99.90;;;;;;5134336;27;20041;-89
2022/09/28 00:28:19;;;;;;;11.68;6.10;;;9.50;99.90;;;;;;5134612;27;20038;-89
2022/09/28 00:30:45;;;;;;;11.07;5.50;;;9.40;99.90;;;;;;5134493;27;20053;-88
2022/09/28 00:33:11;;;;;;;12.52;6.13;;;9.40;99.90;;;;;;5133961;27;20046;-89
2022/09/28 00:35:36;;;;;;;11.73;6.05;;;9.40;99.90;;;;;;5134653;27;20039;-88
2022/09/28 00:38:02;;;;;;;10.23;5.97;;;9.40;99.90;;;;;;5134546;27;20026;-89
2022/09/28 00:40:28;;;;;;;11.32;6.15;;;9.40;99.90;;;;;;5134018;27;20030;-89
2022/09/28 00:42:54;;;;;;;11.05;5.97;;;9.40;99.90;;;;;;5122615;27;20145;-89
2022/09/28 00:45:23;;;;;;;11.93;5.95;;;9.40;99.90;;;;;;5124704;27;20035;-89
2022/09/28 00:47:54;;;;;;;10.38;5.32;;;9.40;99.90;;;;;;5124329;27;20039;-88
2022/09/28 00:50:34;;;;;;;10.50;5.47;;;9.40;99.90;;;;;;5140762;27;20484;-88
2022/09/28 00:53:03;;;;;;;10.65;6.18;;;9.40;99.90;;;;;;5124664;27;20049;-88
2022/09/28 00:55:52;;;;;;;11.77;5.95;;;9.40;99.90;;;;;;5123441;28;20038;-89
2022/09/28 00:58:26;;;;;;;12.65;5.97;;;9.40;99.90;;;;;;5103675;27;20393;-89
2022/09/28 01:00:55;;;;;;;12.25;6.72;;;9.40;99.90;;;;;;5122079;27;20118;-89
2022/09/28 01:03:20;;;;;;;13.55;7.13;;;9.40;99.90;;;;;;5123100;27;20035;-89
2022/09/28 01:05:49;;;;;;;11.50;6.22;;;9.40;99.90;;;;;;5105975;27;20436;-88
2022/09/28 01:08:16;;;;;;;12.82;7.05;;;9.40;99.90;;;;;;5108047;27;20035;-89
2022/09/28 01:10:42;;;;;;;12.40;6.45;;;9.40;99.90;;;;;;5106438;27;20039;-88
2022/09/28 01:13:09;;;;;;;10.75;6.10;;;9.40;99.90;;;;;;5105801;27;20525;-89
2022/09/28 01:16:06;;;;;;;12.55;6.07;;;9.40;99.90;;;;;;5124765;27;20031;-89
2022/09/28 01:18:42;;;;;;;11.20;5.63;;;9.40;99.90;;;;;;5084224;28;20132;-88
2022/09/28 01:21:24;;;;;;;10.05;4.82;;;9.40;99.90;;;;;;5107019;27;20041;-88
2022/09/28 01:24:34;;;;;;;9.80;4.45;;;9.30;99.90;;;;;;5134330;27;20043;-89
2022/09/28 01:27:05;;;;;;;11.00;4.53;;;9.30;99.90;;;;;;5015094;28;20045;-88
2022/09/28 01:30:04;;;;;;;12.25;5.82;;;9.30;99.90;;;;;;5017337;28;20592;-89
2022/09/28 01:33:01;;;;;;;10.93;4.97;;;9.20;99.90;;;;;;5028193;28;20056;-88
2022/09/28 01:35:54;;;;;;;11.82;5.55;;;9.20;99.90;;;;;;5019018;28;20414;-88
2022/09/28 01:38:29;;;;;;;11.93;5.93;;;9.20;99.90;;;;;;5018877;28;20045;-89
2022/09/28 01:40:57;;;;;;;9.27;4.68;;;9.20;99.90;;;;;;5018148;28;20044;-88
2022/09/28 01:43:27;;;;;;;9.35;4.55;;;9.10;99.90;;;;;;5019393;28;20502;-88
2022/09/28 01:46:14;;;;;;;8.07;3.63;;;9.10;99.90;;;;;;5035266;28;20055;-88
2022/09/28 01:48:50;;;;;;;7.70;3.10;;;9.10;99.90;;;;;;5034896;28;20056;-88
2022/09/28 01:51:34;;;;;;;6.75;2.60;;;9.10;99.90;;;;;;5035006;28;20049;-88
2022/09/28 01:54:08;;;;;;;5.82;2.20;;;9.10;99.90;;;;;;5018947;28;20036;-88
2022/09/28 01:56:39;;;;;;;5.88;2.63;;;9.00;99.90;;;;;;5022486;27;20049;-89
2022/09/28 01:59:15;;;;;;;6.40;2.60;;;8.90;99.90;;;;;;5137385;27;20126;-89
2022/09/28 02:02:05;;;;;;;8.98;3.30;;;8.90;99.90;;;;;;5137487;27;20496;-89
2022/09/28 02:04:40;;;;;;;7.28;3.33;;;8.90;99.90;;;;;;5137593;27;20042;-89
2022/09/28 02:07:20;;;;;;;5.88;2.47;;;8.80;99.90;;;;;;5137798;27;20038;-89
2022/09/28 02:09:56;;;;;;;7.05;2.58;;;8.80;99.90;;;;;;5137212;27;20561;-89
2022/09/28 02:12:55;;;;;;;11.90;3.92;;;8.80;99.90;;;;;;5136655;27;20035;-89
2022/09/28 02:15:45;;;;;;;6.82;3.13;;;8.70;99.90;;;;;;5137334;27;20073;-89
2022/09/28 02:18:12;;;;;;;6.22;2.50;;;8.70;99.90;;;;;;5119459;27;20083;-89
2022/09/28 02:20:39;;;;;;;5.63;2.15;;;8.60;99.90;;;;;;5120052;27;20045;-89
2022/09/28 02:23:07;;;;;;;5.90;2.33;;;8.60;99.90;;;;;;5136908;27;20045;-89
2022/09/28 02:25:41;;;;;;;5.70;2.13;;;8.50;99.90;;;;;;5136733;27;20039;-90
2022/09/28 02:28:10;;;;;;;5.00;1.83;;;8.50;99.90;;;;;;5137006;27;20122;-89
2022/09/28 02:30:38;;;;;;;6.80;2.25;;;8.40;99.90;;;;;;5136825;27;20039;-89
2022/09/28 02:33:08;;;;;;;3.95;1.40;;;8.40;99.90;;;;;;5136289;27;20395;-89
2022/09/28 02:35:34;;;;;;;3.65;1.50;;;8.40;99.90;;;;;;5136703;27;20087;-89
2022/09/28 02:38:00;;;;;;;3.70;1.45;;;8.30;99.90;;;;;;5119734;27;20070;-89
2022/09/28 02:40:30;;;;;;;4.07;1.60;;;8.30;99.90;;;;;;5118098;27;20107;-89
2022/09/28 02:43:21;;;;;;;2.50;1.27;;;8.20;99.90;;;;;;5136378;27;20060;-89
2022/09/28 02:46:09;;;;;;;2.42;1.10;;;8.20;99.90;;;;;;5136390;27;20046;-89
2022/09/28 02:48:51;;;;;;;5.75;1.50;;;8.20;99.90;;;;;;5136431;27;20034;-89
2022/09/28 02:51:28;;;;;;;4.88;2.10;;;8.20;99.90;;;;;;5136660;27;20410;-89
2022/09/28 02:54:35;;;;;;;6.80;2.08;;;8.20;99.90;;;;;;5119114;27;20074;-89
2022/09/28 02:57:24;;;;;;;4.90;2.03;;;8.20;99.90;;;;;;5119390;27;20039;-89
2022/09/28 03:00:10;;;;;;;4.63;1.80;;;8.20;99.90;;;;;;5135454;27;20080;-90
2022/09/28 03:03:00;;;;;;;5.22;2.40;;;8.20;99.90;;;;;;5135863;27;20043;-89
2022/09/28 03:05:37;;;;;;;5.65;2.10;;;8.20;99.90;;;;;;5136111;27;20035;-89
2022/09/28 03:08:19;;;;;;;6.82;2.33;;;8.20;99.90;;;;;;5136648;27;20387;-89
2022/09/28 03:10:59;;;;;;;7.57;3.40;;;8.20;99.90;;;;;;5118520;27;20042;-89
2022/09/28 03:13:27;;;;;;;9.45;4.55;;;8.30;99.90;;;;;;5136338;27;20122;-89
2022/09/28 03:16:11;;;;;;;11.50;4.97;;;8.30;99.90;;;;;;5135833;27;20047;-89
2022/09/28 03:18:37;;;;;;;7.50;3.17;;;8.30;99.90;;;;;;5135849;27;20125;-89
2022/09/28 03:21:04;;;;;;;6.70;3.20;;;8.40;99.90;;;;;;5135653;27;20070;-89
2022/09/28 03:23:30;;;;;;;8.80;3.63;;;8.40;99.90;;;;;;5136253;27;20034;-89
2022/09/28 03:25:56;;;;;;;11.57;5.32;;;8.40;99.90;;;;;;5118406;27;20034;-89
2022/09/28 03:28:22;;;;;;;12.85;6.47;;;8.50;99.90;;;;;;5135684;27;20134;-89
2022/09/28 03:30:48;;;;;;;14.40;7.25;;;8.50;99.90;;;;;;5118634;27;20084;-89
2022/09/28 03:33:13;;;;;;;12.13;6.20;;;8.50;99.90;;;;;;5135183;27;20514;-89
2022/09/28 03:35:39;;;;;;;16.70;7.35;;;8.60;99.90;;;;;;5135415;27;20035;-89
2022/09/28 03:38:05;;;;;;;14.48;7.40;;;8.60;99.90;;;;;;5135351;27;20388;-89
2022/09/28 03:40:30;;;;;;;11.88;7.10;;;8.60;99.90;;;;;;5135364;27;20084;-89
2022/09/28 03:42:56;;;;;;;11.23;5.68;;;8.60;99.90;;;;;;5135614;27;20523;-90
2022/09/28 03:45:21;;;;;;;13.38;6.72;;;8.60;99.90;;;;;;5135638;27;20049;-89
2022/09/28 03:47:47;;;;;;;11.38;6.45;;;8.60;99.90;;;;;;5135057;27;20042;-89
2022/09/28 03:50:13;;;;;;;11.13;6.00;;;8.60;99.90;;;;;;5118217;27;20042;-90
2022/09/28 03:52:39;;;;;;;14.63;7.93;;;8.60;99.90;;;;;;5117788;27;20123;-90
2022/09/28 03:55:05;;;;;;;21.70;5.53;;;8.60;99.90;;;;;;5117791;27;20065;-90
2022/09/28 03:57:30;;;;;;;33.25;4.75;;;8.50;99.90;;;;;;5135178;27;20072;-89
2022/09/28 03:59:56;;;;;;;17.30;4.18;;;8.50;99.90;;;;;;5135579;27;20087;-89
2022/09/28 04:02:21;;;;;;;10.45;3.78;;;8.40;99.90;;;;;;5134666;27;20455;-90
2022/09/28 04:04:47;;;;;;;11.75;5.32;;;8.30;99.90;;;;;;5135548;27;20365;-89
2022/09/28 04:07:13;;;;;;;10.18;5.28;;;8.30;99.90;;;;;;5135043;27;20440;-89
2022/09/28 04:09:38;;;;;;;13.27;6.78;;;8.30;99.90;;;;;;5134687;27;20136;-89
2022/09/28 04:12:04;;;;;;;13.27;6.75;;;8.30;99.90;;;;;;5134958;27;20039;-89
2022/09/28 04:14:30;;;;;;;11.75;4.57;;;8.20;99.90;;;;;;5118212;27;20054;-89
2022/09/28 04:16:55;;;;;;;11.63;5.15;;;8.30;99.90;;;;;;5134613;27;20546;-89
2022/09/28 04:19:21;;;;;;;10.45;5.05;;;8.20;99.90;;;;;;5134777;27;20111;-89
2022/09/28 04:21:49;;;;;;;10.70;5.38;;;8.20;99.90;;;;;;5134511;27;20080;-89
2022/09/28 04:24:15;;;;;;;15.23;8.07;;;8.20;99.90;;;;;;5117545;27;20069;-89
2022/09/28 04:26:41;;;;;;;19.38;9.80;;;8.20;99.90;;;;;;5134858;27;20046;-89
2022/09/28 04:29:15;;;;;;;22.25;12.02;;;8.20;99.90;;;;;;5134610;27;20042;-90
2022/09/28 04:31:44;;;;;;;20.45;11.93;;;8.30;99.90;;;;;;5134185;27;20039;-89
2022/09/28 04:34:12;;;;;;;24.30;13.13;;;8.30;99.90;;;;;;5134985;27;20099;-90
2022/09/28 04:36:37;;;;;;;22.98;12.52;;;8.40;99.90;;;;;;5134806;27;20074;-89
2022/09/28 04:39:04;;;;;;;27.92;14.45;;;8.40;99.90;;;;;;5134384;27;20111;-89
2022/09/28 04:41:29;;;;;;;21.70;11.88;;;8.40;99.90;;;;;;5134603;27;20522;-89
2022/09/28 04:43:55;;;;;;;25.20;13.07;;;8.50;99.90;;;;;;5117977;27;20038;-89
2022/09/28 04:46:21;;;;;;;24.25;12.95;;;8.50;99.90;;;;;;5134327;27;20415;-89
2022/09/28 04:48:46;;;;;;;26.15;14.77;;;8.50;99.90;;;;;;5135170;27;20125;-89
2022/09/28 04:51:12;;;;;;;29.35;14.85;;;8.50;99.90;;;;;;5117324;27;20050;-89
2022/09/28 04:53:37;;;;;;;22.92;13.13;;;8.60;99.90;;;;;;5134405;27;20038;-90
2022/09/28 04:56:09;;;;;;;23.25;12.13;;;8.60;99.90;;;;;;5117694;27;20076;-89
2022/09/28 04:58:35;;;;;;;28.10;13.70;;;8.60;99.90;;;;;;5134704;27;20058;-89
2022/09/28 05:01:04;;;;;;;28.50;13.77;;;8.60;99.90;;;;;;5116840;27;20042;-89
2022/09/28 05:03:30;;;;;;;25.73;14.75;;;8.60;99.90;;;;;;5135036;27;20099;-89
2022/09/28 05:05:56;;;;;;;26.30;14.57;;;8.60;99.90;;;;;;5121414;27;20152;-90
2022/09/28 05:08:21;;;;;;;24.40;14.00;;;8.60;99.90;;;;;;5121248;27;20046;-90
2022/09/28 05:10:47;;;;;;;23.45;12.82;;;8.60;99.90;;;;;;5138437;27;20492;-89
2022/09/28 05:13:13;;;;;;;23.83;13.50;;;8.60;99.90;;;;;;5134208;27;20030;-89
2022/09/28 05:15:40;;;;;;;34.55;15.20;;;8.60;99.90;;;;;;5116569;27;20050;-89
2022/09/28 05:18:06;;;;;;;32.97;13.88;;;8.60;99.90;;;;;;5100201;27;20038;-89
2022/09/28 05:20:33;;;;;;;22.55;12.80;;;8.60;99.90;;;;;;5117072;27;20041;-90
2022/09/28 05:22:58;;;;;;;27.05;14.40;;;8.60;99.90;;;;;;5116747;27;20039;-90
2022/09/28 05:25:24;;;;;;;33.80;13.70;;;8.60;99.90;;;;;;5117059;27;20555;-89
2022/09/28 05:27:56;;;;;;;30.77;13.80;;;8.50;99.90;;;;;;5100104;27;20108;-89
2022/09/28 05:30:23;;;;;;;40.55;13.27;;;8.50;99.90;;;;;;5099904;27;20035;-89
2022/09/28 05:32:49;;;;;;;26.15;12.80;;;8.50;99.90;;;;;;5116854;27;20043;-89
2022/09/28 05:35:15;;;;;;;36.80;12.75;;;8.50;99.90;;;;;;5116773;27;20492;-90
2022/09/28 05:37:42;;;;;;;39.38;12.38;;;8.60;99.90;;;;;;5098878;27;20088;-89
2022/09/28 05:40:08;;;;;;;43.08;14.07;;;8.60;99.90;;;;;;5116803;27;20727;-90
2022/09/28 05:42:33;;;;;;;33.25;12.38;;;8.60;99.90;;;;;;5099043;27;20035;-89
2022/09/28 05:44:59;;;;;;;21.63;11.70;;;8.50;99.90;;;;;;5116563;27;20046;-89
2022/09/28 05:47:25;;;;;;;31.40;13.02;;;8.50;99.90;;;;;;5116385;27;20031;-89
2022/09/28 05:49:52;;;;;;;56.92;13.55;;;8.60;99.90;;;;;;5099679;27;20035;-90
2022/09/28 05:52:18;;;;;;;25.92;13.23;;;8.50;99.90;;;;;;5116208;27;20031;-90
2022/09/28 05:54:44;;;;;;;23.02;12.88;;;8.60;99.90;;;;;;5099085;27;20043;-89
2022/09/28 05:57:09;;;;;;;60.92;13.02;;;8.60;99.90;;;;;;5116541;27;20038;-90
2022/09/28 05:59:35;;;;;;;42.47;12.00;;;8.50;99.90;;;;;;5116516;27;20396;-89
2022/09/28 06:02:01;;;;;;;51.17;13.48;;;8.50;99.90;;;;;;5098872;27;20031;-89
2022/09/28 06:04:27;;;;;;;47.97;14.02;;;8.50;99.90;;;;;;5099655;27;20043;-90
2022/09/28 06:06:53;;;;;;;69.25;14.35;;;8.50;99.90;;;;;;5116218;27;20057;-90
2022/09/28 06:09:19;;;;;;;49.10;11.52;;;8.50;99.90;;;;;;5098790;27;20035;-90
2022/09/28 06:11:45;;;;;;;20.63;11.60;;;8.40;99.90;;;;;;5115759;27;20031;-90
2022/09/28 06:14:12;;;;;;;35.33;10.82;;;8.50;99.90;;;;;;5116186;27;20100;-90
2022/09/28 06:16:39;;;;;;;33.45;11.77;;;8.40;99.90;;;;;;5115548;27;20039;-90
2022/09/28 06:19:06;;;;;;;64.78;12.52;;;8.50;99.90;;;;;;5115938;27;20491;-89
2022/09/28 06:21:32;;;;;;;51.35;13.55;;;8.50;99.90;;;;;;5115615;27;20049;-90
2022/09/28 06:23:57;;;;;;;28.73;11.70;;;8.50;99.90;;;;;;5115425;27;20035;-90
2022/09/28 06:26:23;;;;;;;26.42;11.55;;;8.50;99.90;;;;;;5115689;27;20031;-90
2022/09/28 06:28:49;;;;;;;40.35;12.40;;;8.50;99.90;;;;;;5116042;27;20168;-90
2022/09/28 06:31:14;;;;;;;53.67;12.35;;;8.50;99.90;;;;;;5115346;27;20046;-89
2022/09/28 06:33:40;;;;;;;56.17;12.32;;;8.50;99.90;;;;;;5098983;27;20404;-90
2022/09/28 06:36:07;;;;;;;77.40;13.85;;;8.50;99.90;;;;;;5115523;27;20043;-90
2022/09/28 06:38:33;;;;;;;67.93;11.98;;;8.50;99.90;;;;;;5115337;27;20669;-89
2022/09/28 06:40:58;;;;;;;42.20;11.32;;;8.50;99.90;;;;;;5113607;27;20041;-90
2022/09/28 06:43:24;;;;;;;29.75;10.05;;;8.40;99.90;;;;;;5115939;27;20031;-90
2022/09/28 06:45:52;;;;;;;24.25;9.73;;;8.40;99.90;;;;;;5098152;27;20500;-89
2022/09/28 06:48:17;;;;;;;27.00;9.38;;;8.40;99.90;;;;;;5098571;27;20042;-90
2022/09/28 06:50:44;;;;;;;72.10;11.80;;;8.40;99.90;;;;;;5115361;27;20042;-89
2022/09/28 06:53:15;;;;;;;46.63;9.48;;;8.40;99.90;;;;;;5114172;27;20038;-90
2022/09/28 06:55:43;;;;;;;22.70;10.48;;;8.40;99.90;;;;;;5113970;27;20039;-89
2022/09/28 06:58:11;;;;;;;38.97;11.85;;;8.40;99.90;;;;;;5115635;27;20050;-90
2022/09/28 07:00:38;;;;;;;58.05;12.13;;;8.50;99.90;;;;;;5115182;27;20053;-90
2022/09/28 07:03:06;;;;;;;40.53;12.52;;;8.50;99.90;;;;;;5115518;27;20073;-90
2022/09/28 07:05:35;;;;;;;43.22;11.50;;;8.50;99.90;;;;;;5098475;27;20077;-90
2022/09/28 07:08:03;;;;;;;37.83;11.55;;;8.50;99.90;;;;;;5114701;27;20039;-90
2022/09/28 07:10:29;;;;;;;62.53;12.40;;;8.50;99.90;;;;;;5115223;27;20135;-90
2022/09/28 07:12:56;;;;;;;76.13;13.30;;;8.50;99.90;;;;;;5098080;27;20523;-89
2022/09/28 07:15:23;;;;;;;57.83;11.05;;;8.50;99.90;;;;;;5114749;27;20043;-90
2022/09/28 07:17:49;;;;;;;34.28;10.18;;;8.50;99.90;;;;;;5114699;27;20035;-90
2022/09/28 07:20:15;;;;;;;68.93;13.60;;;8.60;99.90;;;;;;5115147;27;20050;-90
2022/09/28 07:22:42;;;;;;;35.90;11.23;;;8.60;99.90;;;;;;5114056;27;20042;-90
2022/09/28 07:25:08;;;;;;;38.30;11.10;;;8.60;99.90;;;;;;5114926;27;20047;-90
2022/09/28 07:27:38;;;;;;;26.58;9.18;;;8.60;99.90;;;;;;5114038;27;20043;-90
2022/09/28 07:30:05;;;;;;;40.60;10.57;;;8.60;99.90;;;;;;5114353;27;20937;-90
2022/09/28 07:32:33;;;;;;;39.10;9.65;;;8.60;99.90;;;;;;5114398;27;20541;-90
2022/09/28 07:34:59;;;;;;;30.55;9.23;;;8.50;99.90;;;;;;5097421;27;20047;-89
2022/09/28 07:37:25;;;;;;;25.20;9.07;;;8.60;99.90;;;;;;5114296;27;20047;-90
2022/09/28 07:42:35;;;;;;;25.30;8.57;;;8.60;99.90;;;;;;5113960;27;20544;-89
2022/09/28 07:45:02;;;;;;;25.95;8.27;;;8.60;99.90;;;;;;5114011;27;20500;-89
2022/09/28 07:47:27;;;;;;;15.32;8.30;;;8.60;99.90;;;;;;5114299;27;20069;-89
2022/09/28 07:49:55;;;;;;;23.13;8.45;;;8.60;99.90;;;;;;5114422;27;20085;-89
2022/09/28 07:52:23;;;;;;;32.85;9.13;;;8.60;99.90;;;;;;5113841;27;20054;-89
2022/09/28 07:54:51;;;;;;;16.85;7.55;;;8.60;99.90;;;;;;5114274;27;20043;-89
2022/09/28 07:57:18;;;;;;;18.05;7.82;;;8.70;99.90;;;;;;5114173;27;20442;-89
2022/09/28 07:59:43;;;;;;;22.63;9.05;;;8.70;99.90;;;;;;5097052;27;20400;-89
2022/09/28 08:02:10;;;;;;;17.20;7.45;;;8.70;99.90;;;;;;5097037;27;20031;-89
2022/09/28 08:04:35;;;;;;;15.07;7.40;;;8.70;99.90;;;;;;5097024;27;20039;-89
2022/09/28 08:07:02;;;;;;;20.30;8.88;;;8.70;99.90;;;;;;5113691;27;20039;-90
2022/09/28 08:09:28;;;;;;;17.50;8.00;;;8.70;99.90;;;;;;5113941;27;20043;-90
2022/09/28 08:11:53;;;;;;;17.73;8.00;;;8.70;99.90;;;;;;5113733;27;20408;-90
2022/09/28 08:14:19;;;;;;;14.85;6.82;;;8.80;99.90;;;;;;5113663;27;20027;-89
2022/09/28 08:16:45;;;;;;;17.33;7.18;;;8.70;99.90;;;;;;5096625;28;20055;-89
2022/09/28 08:19:11;;;;;;;16.50;8.02;;;8.80;99.90;;;;;;5113848;28;20043;-89
2022/09/28 08:21:46;;;;;;;15.43;7.88;;;8.90;99.90;;;;;;5113141;28;20035;-89
2022/09/28 08:24:13;;;;;;;16.00;7.90;;;8.90;99.90;;;;;;5096678;27;20046;-89
2022/09/28 08:26:38;;;;;;;18.77;7.82;;;9.00;99.90;;;;;;5113917;28;20043;-89
2022/09/28 08:29:05;;;;;;;18.30;7.88;;;9.10;99.90;;;;;;5113784;27;20054;-89
2022/09/28 08:31:30;;;;;;;15.32;8.13;;;9.10;99.90;;;;;;5113626;28;20050;-89
2022/09/28 08:33:56;;;;;;;14.40;8.70;;;9.10;99.90;;;;;;5114256;28;20039;-90
2022/09/28 08:36:22;;;;;;;13.25;7.28;;;9.10;99.90;;;;;;5112662;28;20043;-89
2022/09/28 08:38:48;;;;;;;13.90;7.15;;;9.20;99.90;;;;;;5114559;27;20051;-89
2022/09/28 08:41:46;;;;;;;14.02;7.63;;;9.20;99.90;;;;;;5117871;27;20116;-89
2022/09/28 08:44:14;;;;;;;13.90;7.40;;;9.20;99.90;;;;;;5117371;27;20042;-89
2022/09/28 08:46:46;;;;;;;14.90;8.60;;;9.20;99.90;;;;;;5100720;27;20031;-89
2022/09/28 08:49:30;;;;;;;15.95;8.27;;;9.30;99.90;;;;;;5117882;27;20047;-89
2022/09/28 08:51:58;;;;;;;16.98;8.77;;;9.30;99.90;;;;;;5117465;27;20047;-89
2022/09/28 08:55:04;;;;;;;13.90;7.20;;;9.40;99.90;;;;;;5117740;27;20160;-89
2022/09/28 08:57:43;;;;;;;13.98;7.07;;;9.40;99.90;;;;;;5117680;27;20082;-89
2022/09/28 09:00:21;;;;;;;14.40;7.07;;;9.50;99.90;;;;;;5100365;27;20039;-89
2022/09/28 09:02:47;;;;;;;14.63;7.65;;;9.60;99.90;;;;;;5117405;27;20126;-89
2022/09/28 09:05:17;;;;;;;13.32;6.65;;;9.70;99.90;;;;;;5100668;27;20061;-89
2022/09/28 09:07:53;;;;;;;13.68;6.97;;;9.80;99.90;;;;;;5117257;27;20516;-89
2022/09/28 09:10:36;;;;;;;12.93;6.82;;;9.80;99.90;;;;;;5100620;27;20507;-90
2022/09/28 09:13:30;;;;;;;13.35;7.47;;;9.90;99.90;;;;;;5116751;27;20103;-90
2022/09/28 09:16:10;;;;;;;13.63;6.47;;;9.90;99.90;;;;;;5117597;27;20404;-89
2022/09/28 09:19:13;;;;;;;15.07;7.40;;;9.90;99.90;;;;;;5100046;27;20122;-89
2022/09/28 09:22:26;;;;;;;14.50;7.35;;;10.00;99.90;;;;;;5116213;27;20041;-89
2022/09/28 09:25:15;;;;;;;13.60;6.88;;;10.00;99.90;;;;;;5116823;27;20047;-89
2022/09/28 09:28:00;;;;;;;14.52;7.07;;;10.00;99.90;;;;;;5117174;27;20043;-90
2022/09/28 09:30:37;;;;;;;14.05;7.45;;;10.20;99.90;;;;;;5117451;27;20043;-89
2022/09/28 09:33:09;;;;;;;14.38;6.72;;;10.20;99.90;;;;;;5099761;27;20031;-89
2022/09/28 09:36:10;;;;;;;15.02;6.95;;;10.30;99.90;;;;;;5116338;27;20066;-89
2022/09/28 09:39:11;;;;;;;15.55;7.47;;;10.40;99.90;;;;;;5099858;27;20039;-89
2022/09/28 09:42:07;;;;;;;13.55;7.05;;;10.50;99.90;;;;;;5116689;27;20054;-89
2022/09/28 09:45:13;;;;;;;13.55;7.30;;;10.50;99.90;;;;;;5116594;27;20074;-89
2022/09/28 09:47:47;;;;;;;13.60;6.45;;;10.60;99.90;;;;;;5098913;27;20543;-90
2022/09/28 09:50:38;;;;;;;15.68;7.82;;;10.70;99.90;;;;;;5124545;27;20065;-89
2022/09/28 09:53:12;;;;;;;14.75;7.80;;;10.70;99.90;;;;;;5121133;27;20115;-89
2022/09/28 09:55:42;;;;;;;16.48;8.55;;;10.90;99.90;;;;;;5126650;27;20550;-90
2022/09/28 09:58:11;;;;;;;15.20;8.38;;;11.10;99.90;;;;;;5116064;27;20035;-90
2022/09/28 10:00:47;;;;;;;16.25;8.95;;;11.30;99.90;;;;;;5116521;27;20500;-89
2022/09/28 10:03:21;;;;;;;13.77;7.25;;;11.40;99.90;;;;;;5099015;27;20408;-91
2022/09/28 10:05:55;;;;;;;15.95;12.50;;;11.50;99.90;;;;;;5115901;27;20072;-90
2022/09/28 10:08:22;;;;;;;12.80;6.90;;;11.60;99.90;;;;;;5099393;27;20035;-90
2022/09/28 10:10:50;;;;;;;14.82;8.20;;;11.70;99.90;;;;;;5115948;27;20047;-90
2022/09/28 10:13:15;;;;;;;14.63;8.00;;;11.70;99.90;;;;;;5115588;27;20460;-90
2022/09/28 10:15:41;;;;;;;13.55;8.25;;;11.80;99.90;;;;;;5116298;27;20035;-89
2022/09/28 10:18:13;;;;;;;14.55;9.15;;;11.80;99.90;;;;;;5115980;27;20031;-90
2022/09/28 10:20:42;;;;;;;15.52;12.35;;;11.90;99.90;;;;;;5115554;27;20091;-90
2022/09/28 10:23:27;;;;;;;14.15;8.82;;;12.00;99.90;;;;;;5115881;27;20041;-90
2022/09/28 10:26:01;;;;;;;14.20;6.50;;;12.10;99.90;;;;;;5115744;27;20088;-90
2022/09/28 10:28:39;;;;;;;12.02;7.05;;;12.20;99.90;;;;;;5098211;27;20046;-90
2022/09/28 10:31:42;;;;;;;12.30;7.15;;;12.20;99.90;;;;;;5115574;27;20039;-90
2022/09/28 10:34:15;;;;;;;11.60;6.05;;;12.30;99.90;;;;;;5115923;27;20404;-90
2022/09/28 10:37:11;;;;;;;10.73;6.35;;;12.40;99.90;;;;;;5098193;27;20042;-89
2022/09/28 10:39:54;;;;;;;12.30;9.48;;;12.40;99.90;;;;;;5094250;27;20649;-90
2022/09/28 10:42:29;;;;;;;11.85;6.78;;;12.60;99.90;;;;;;5114160;27;20039;-90
2022/09/28 10:44:59;;;;;;;12.40;7.32;;;12.60;99.90;;;;;;5115932;27;20043;-90
2022/09/28 10:47:30;;;;;;;11.73;6.78;;;12.80;99.90;;;;;;5120856;27;20518;-90
2022/09/28 10:49:56;;;;;;;12.48;7.45;;;12.80;99.90;;;;;;5133608;27;20097;-90
2022/09/28 10:52:31;;;;;;;13.23;7.00;;;12.90;99.90;;;;;;5118342;27;20543;-90
2022/09/28 10:54:57;;;;;;;12.45;10.00;;;12.90;99.90;;;;;;5115147;27;20043;-89
2022/09/28 10:57:34;;;;;;;11.55;6.45;;;13.00;99.90;;;;;;5104817;27;20479;-90
2022/09/28 11:00:01;;;;;;;11.25;6.38;;;13.10;99.90;;;;;;5113434;27;20507;-90
2022/09/28 11:02:31;;;;;;;13.27;8.85;;;13.10;99.90;;;;;;5097209;27;20385;-90
2022/09/28 11:04:59;;;;;;;11.48;6.88;;;13.30;99.90;;;;;;5114788;27;20031;-90
2022/09/28 11:07:29;;;;;;;12.13;8.98;;;13.30;99.90;;;;;;5115219;27;20027;-90
2022/09/28 11:09:57;;;;;;;11.68;7.03;;;13.40;99.90;;;;;;5115243;27;20035;-90
2022/09/28 11:12:25;;;;;;;12.52;9.10;;;13.30;99.90;;;;;;5114499;27;20535;-90
2022/09/28 11:15:00;;;;;;;13.15;6.97;;;13.40;99.90;;;;;;5113932;27;20058;-90
2022/09/28 11:17:39;;;;;;;12.15;6.20;;;13.50;99.90;;;;;;5096842;27;20042;-90
2022/09/28 11:20:23;;;;;;;11.70;8.25;;;13.40;99.90;;;;;;5114566;27;20513;-90
2022/09/28 11:22:50;;;;;;;8.48;4.43;;;13.50;99.90;;;;;;5132010;27;20039;-90
2022/09/28 11:25:16;;;;;;;11.10;5.57;;;13.60;99.90;;;;;;5115207;27;20046;-90
2022/09/28 11:27:53;;;;;;;9.52;6.38;;;13.60;99.90;;;;;;5114442;27;20039;-90
2022/09/28 11:30:33;;;;;;;9.63;5.22;;;13.70;99.90;;;;;;5116318;27;20039;-90
2022/09/28 11:33:10;;;;;;;9.15;4.53;;;13.60;99.90;;;;;;5114626;27;20035;-90
2022/09/28 11:35:41;;;;;;;8.25;4.72;;;13.70;99.90;;;;;;5114819;27;20054;-90
2022/09/28 11:38:27;;;;;;;8.50;4.25;;;13.90;99.90;;;;;;5113513;27;20031;-90
2022/09/28 11:41:11;;;;;;;8.80;4.60;;;14.00;99.90;;;;;;5114914;27;20489;-91
2022/09/28 11:43:58;;;;;;;9.25;3.60;;;14.20;99.90;;;;;;5111069;27;20581;-90
2022/09/28 11:46:42;;;;;;;7.72;3.63;;;14.10;99.90;;;;;;5113683;27;20050;-90
2022/09/28 11:49:33;;;;;;;7.80;4.20;;;14.30;99.90;;;;;;5114383;27;20465;-90
2022/09/28 11:52:05;;;;;;;8.52;3.47;;;14.40;99.90;;;;;;5097353;27;20126;-90
2022/09/28 11:54:49;;;;;;;6.78;2.78;;;14.40;99.90;;;;;;5115471;27;20416;-90
2022/09/28 11:57:19;;;;;;;7.35;3.53;;;14.40;99.90;;;;;;5117666;27;20043;-90
2022/09/28 11:59:59;;;;;;;7.20;3.10;;;14.50;99.90;;;;;;5135093;27;20457;-89
2022/09/28 12:02:33;;;;;;;7.55;3.30;;;14.50;99.90;;;;;;5134135;27;20031;-90
2022/09/28 12:05:14;;;;;;;6.63;2.63;;;14.60;99.90;;;;;;5134172;27;20545;-90
2022/09/28 12:07:45;;;;;;;6.47;2.40;;;14.80;99.90;;;;;;5134024;27;20392;-90
2022/09/28 12:10:25;;;;;;;6.25;2.92;;;14.80;99.90;;;;;;5117635;27;20038;-90
2022/09/28 12:13:09;;;;;;;5.63;2.58;;;15.10;99.90;;;;;;5132137;27;20125;-90
2022/09/28 12:15:43;;;;;;;6.88;3.00;;;15.20;99.90;;;;;;5133920;27;20042;-90
2022/09/28 12:18:35;;;;;;;5.47;2.25;;;15.30;99.90;;;;;;5117073;27;20517;-90
2022/09/28 12:21:28;;;;;;;6.38;2.35;;;15.40;99.90;;;;;;5114885;27;20517;-90
2022/09/28 12:23:59;;;;;;;4.93;2.00;;;15.40;99.90;;;;;;5115304;27;20395;-90
2022/09/28 12:26:38;;;;;;;4.60;1.75;;;15.30;99.90;;;;;;5132024;27;20469;-90
2022/09/28 12:29:35;;;;;;;5.45;2.13;;;15.30;99.90;;;;;;5132491;27;20449;-90
2022/09/28 12:32:24;;;;;;;5.97;2.40;;;15.40;99.90;;;;;;5128750;27;20046;-90
2022/09/28 12:34:50;;;;;;;5.45;2.00;;;15.50;99.90;;;;;;5134689;27;20564;-91
2022/09/28 12:37:41;;;;;;;6.65;1.77;;;15.60;99.90;;;;;;5117432;27;20047;-90
2022/09/28 12:40:29;;;;;;;4.88;1.63;;;15.70;99.90;;;;;;5128155;27;20521;-90
2022/09/28 12:43:13;;;;;;;5.57;1.85;;;15.60;99.90;;;;;;5099757;27;20035;-91
2022/09/28 12:46:26;;;;;;;5.18;1.70;;;15.60;99.90;;;;;;5134274;27;20046;-91
2022/09/28 12:49:10;;;;;;;4.97;1.60;;;15.60;99.90;;;;;;5031651;28;20133;-91
2022/09/28 12:52:00;;;;;;;5.50;1.65;;;15.60;99.90;;;;;;5015568;28;20036;-89
2022/09/28 12:54:43;;;;;;;3.17;1.30;;;15.90;99.90;;;;;;5109112;27;20081;-91
2022/09/28 12:57:27;;;;;;;4.68;1.42;;;16.20;99.90;;;;;;5117322;27;20047;-90
2022/09/28 13:00:01;;;;;;;3.55;1.30;;;16.20;99.90;;;;;;5124098;27;20039;-91
2022/09/28 13:03:02;;;;;;;4.65;1.30;;;16.20;99.90;;;;;;5122627;27;20501;-90
2022/09/28 13:06:05;;;;;;;4.50;1.63;;;16.30;99.90;;;;;;5132088;27;20451;-90
2022/09/28 13:08:38;;;;;;;4.32;1.23;;;16.40;99.90;;;;;;5096123;28;20046;-91
2022/09/28 13:11:21;;;;;;;6.53;1.70;;;16.20;99.90;;;;;;5113256;28;20133;-91
2022/09/28 13:14:02;;;;;;;4.50;1.23;;;16.10;99.90;;;;;;5123855;27;20034;-91
2022/09/28 13:16:40;;;;;;;4.07;1.50;;;15.90;99.90;;;;;;5124933;27;20046;-91